sensor_id;sensor_type;location;lat;lon;timestamp;P1;durP1;ratioP1;P2;durP2;ratioP2
41627;SDS011;27321;50.816;6.054;2023-03-23T00:01:02;2.90;;;2.10;;
41627;SDS011;27321;50.816;6.054;2023-03-23T00:04:05;4.63;;;1.97;;
41627;SDS011;27321;50.816;6.054;2023-03-23T00:07:07;3.30;;;1.88;;
41627;SDS011;27321;50.816;6.054;2023-03-23T00:10:08;1.70;;;1.60;;
41627;SDS011;27321;50.816;6.054;2023-03-23T00:13:10;2.15;;;1.70;;
41627;SDS011;27321;50.816;6.054;2023-03-23T00:16:11;3.90;;;1.98;;
41627;SDS011;27321;50.816;6.054;2023-03-23T00:19:20;4.33;;;1.90;;
41627;SDS011;27321;50.816;6.054;2023-03-23T00:25:28;3.07;;;2.03;;
41627;SDS011;27321;50.816;6.054;2023-03-23T00:28:28;2.17;;;1.97;;
41627;SDS011;27321;50.816;6.054;2023-03-23T00:31:30;2.92;;;2.25;;
41627;SDS011;27321;50.816;6.054;2023-03-23T00:34:33;2.17;;;1.80;;
41627;SDS011;27321;50.816;6.054;2023-03-23T00:37:34;3.55;;;2.17;;
41627;SDS011;27321;50.816;6.054;2023-03-23T00:40:36;3.22;;;1.90;;
41627;SDS011;27321;50.816;6.054;2023-03-23T00:43:37;3.88;;;2.20;;
41627;SDS011;27321;50.816;6.054;2023-03-23T00:46:39;2.97;;;1.70;;
41627;SDS011;27321;50.816;6.054;2023-03-23T00:49:45;2.10;;;1.90;;
41627;SDS011;27321;50.816;6.054;2023-03-23T00:52:46;3.63;;;1.98;;
41627;SDS011;27321;50.816;6.054;2023-03-23T00:55:48;4.78;;;2.40;;
41627;SDS011;27321;50.816;6.054;2023-03-23T00:58:49;2.97;;;1.87;;
41627;SDS011;27321;50.816;6.054;2023-03-23T01:01:50;2.28;;;1.75;;
41627;SDS011;27321;50.816;6.054;2023-03-23T01:04:52;1.73;;;1.60;;
41627;SDS011;27321;50.816;6.054;2023-03-23T01:07:53;3.40;;;1.95;;
41627;SDS011;27321;50.816;6.054;2023-03-23T01:11:01;2.83;;;2.15;;
41627;SDS011;27321;50.816;6.054;2023-03-23T01:14:06;4.27;;;2.27;;
41627;SDS011;27321;50.816;6.054;2023-03-23T01:17:08;3.38;;;2.45;;
41627;SDS011;27321;50.816;6.054;2023-03-23T01:20:10;2.72;;;2.20;;
41627;SDS011;27321;50.816;6.054;2023-03-23T01:23:13;4.70;;;2.20;;
41627;SDS011;27321;50.816;6.054;2023-03-23T01:26:15;1.97;;;1.87;;
41627;SDS011;27321;50.816;6.054;2023-03-23T01:29:22;3.07;;;1.97;;
41627;SDS011;27321;50.816;6.054;2023-03-23T01:32:23;2.55;;;2.10;;
41627;SDS011;27321;50.816;6.054;2023-03-23T01:35:25;2.17;;;1.48;;
41627;SDS011;27321;50.816;6.054;2023-03-23T01:41:27;2.30;;;1.77;;
41627;SDS011;27321;50.816;6.054;2023-03-23T01:47:36;1.40;;;1.30;;
41627;SDS011;27321;50.816;6.054;2023-03-23T01:50:39;1.50;;;1.40;;
41627;SDS011;27321;50.816;6.054;2023-03-23T01:54:09;1.33;;;1.20;;
41627;SDS011;27321;50.816;6.054;2023-03-23T01:57:21;1.37;;;1.27;;
41627;SDS011;27321;50.816;6.054;2023-03-23T02:00:30;2.07;;;1.60;;
41627;SDS011;27321;50.816;6.054;2023-03-23T02:03:38;1.43;;;1.20;;
41627;SDS011;27321;50.816;6.054;2023-03-23T02:06:44;1.67;;;1.40;;
41627;SDS011;27321;50.816;6.054;2023-03-23T02:09:53;2.10;;;1.43;;
41627;SDS011;27321;50.816;6.054;2023-03-23T02:12:54;1.58;;;1.15;;
41627;SDS011;27321;50.816;6.054;2023-03-23T02:19:18;1.33;;;1.17;;
41627;SDS011;27321;50.816;6.054;2023-03-23T02:26:10;1.40;;;1.30;;
41627;SDS011;27321;50.816;6.054;2023-03-23T02:32:40;1.40;;;1.30;;
41627;SDS011;27321;50.816;6.054;2023-03-23T02:42:25;1.80;;;1.47;;
41627;SDS011;27321;50.816;6.054;2023-03-23T02:45:33;1.50;;;1.40;;
41627;SDS011;27321;50.816;6.054;2023-03-23T02:48:36;1.60;;;1.30;;
41627;SDS011;27321;50.816;6.054;2023-03-23T02:51:40;2.10;;;1.30;;
41627;SDS011;27321;50.816;6.054;2023-03-23T02:54:44;1.67;;;1.57;;
41627;SDS011;27321;50.816;6.054;2023-03-23T02:57:49;1.70;;;1.60;;
41627;SDS011;27321;50.816;6.054;2023-03-23T03:00:53;1.40;;;1.30;;
41627;SDS011;27321;50.816;6.054;2023-03-23T03:03:56;1.63;;;1.53;;
41627;SDS011;27321;50.816;6.054;2023-03-23T03:10:18;3.92;;;1.70;;
41627;SDS011;27321;50.816;6.054;2023-03-23T03:13:50;2.23;;;1.60;;
41627;SDS011;27321;50.816;6.054;2023-03-23T03:17:24;2.50;;;1.67;;
41627;SDS011;27321;50.816;6.054;2023-03-23T03:20:27;1.63;;;1.53;;
41627;SDS011;27321;50.816;6.054;2023-03-23T03:23:30;3.43;;;1.70;;
41627;SDS011;27321;50.816;6.054;2023-03-23T03:26:35;3.77;;;1.73;;
41627;SDS011;27321;50.816;6.054;2023-03-23T03:30:07;3.80;;;1.75;;
41627;SDS011;27321;50.816;6.054;2023-03-23T03:33:17;2.03;;;1.70;;
41627;SDS011;27321;50.816;6.054;2023-03-23T03:36:21;2.43;;;1.73;;
41627;SDS011;27321;50.816;6.054;2023-03-23T03:39:27;1.83;;;1.67;;
41627;SDS011;27321;50.816;6.054;2023-03-23T03:42:28;2.35;;;1.77;;
41627;SDS011;27321;50.816;6.054;2023-03-23T03:45:29;1.92;;;1.67;;
41627;SDS011;27321;50.816;6.054;2023-03-23T03:48:30;3.05;;;2.08;;
41627;SDS011;27321;50.816;6.054;2023-03-23T03:51:32;2.50;;;1.60;;
41627;SDS011;27321;50.816;6.054;2023-03-23T03:54:34;4.67;;;1.80;;
41627;SDS011;27321;50.816;6.054;2023-03-23T03:57:35;2.13;;;1.63;;
41627;SDS011;27321;50.816;6.054;2023-03-23T04:00:55;2.37;;;1.67;;
41627;SDS011;27321;50.816;6.054;2023-03-23T04:04:00;2.13;;;1.87;;
41627;SDS011;27321;50.816;6.054;2023-03-23T04:07:06;2.80;;;1.80;;
41627;SDS011;27321;50.816;6.054;2023-03-23T04:10:08;3.50;;;2.13;;
41627;SDS011;27321;50.816;6.054;2023-03-23T04:13:19;2.43;;;1.83;;
41627;SDS011;27321;50.816;6.054;2023-03-23T04:16:35;2.40;;;1.93;;
41627;SDS011;27321;50.816;6.054;2023-03-23T04:19:36;2.75;;;2.00;;
41627;SDS011;27321;50.816;6.054;2023-03-23T04:22:39;2.97;;;2.10;;
41627;SDS011;27321;50.816;6.054;2023-03-23T04:25:43;2.77;;;2.10;;
41627;SDS011;27321;50.816;6.054;2023-03-23T04:28:47;3.43;;;1.90;;
41627;SDS011;27321;50.816;6.054;2023-03-23T04:32:08;2.33;;;1.90;;
41627;SDS011;27321;50.816;6.054;2023-03-23T04:35:14;4.70;;;1.80;;
41627;SDS011;27321;50.816;6.054;2023-03-23T04:38:21;3.57;;;1.80;;
41627;SDS011;27321;50.816;6.054;2023-03-23T04:41:29;2.20;;;1.80;;
41627;SDS011;27321;50.816;6.054;2023-03-23T04:44:47;3.20;;;1.73;;
41627;SDS011;27321;50.816;6.054;2023-03-23T04:47:58;2.67;;;2.00;;
41627;SDS011;27321;50.816;6.054;2023-03-23T04:51:09;3.07;;;2.20;;
41627;SDS011;27321;50.816;6.054;2023-03-23T04:54:14;3.73;;;1.70;;
41627;SDS011;27321;50.816;6.054;2023-03-23T04:57:21;2.43;;;1.90;;
41627;SDS011;27321;50.816;6.054;2023-03-23T05:00:42;3.05;;;1.98;;
41627;SDS011;27321;50.816;6.054;2023-03-23T05:03:45;1.97;;;1.43;;
41627;SDS011;27321;50.816;6.054;2023-03-23T05:06:46;3.83;;;1.50;;
41627;SDS011;27321;50.816;6.054;2023-03-23T05:09:54;2.50;;;2.10;;
41627;SDS011;27321;50.816;6.054;2023-03-23T05:12:59;3.10;;;1.63;;
41627;SDS011;27321;50.816;6.054;2023-03-23T05:16:04;3.30;;;1.65;;
41627;SDS011;27321;50.816;6.054;2023-03-23T05:19:08;3.53;;;1.90;;
41627;SDS011;27321;50.816;6.054;2023-03-23T05:22:10;3.83;;;1.97;;
41627;SDS011;27321;50.816;6.054;2023-03-23T05:25:19;2.10;;;1.60;;
41627;SDS011;27321;50.816;6.054;2023-03-23T05:28:27;2.60;;;1.57;;
41627;SDS011;27321;50.816;6.054;2023-03-23T05:31:52;3.23;;;1.80;;
41627;SDS011;27321;50.816;6.054;2023-03-23T05:34:56;3.03;;;1.53;;
41627;SDS011;27321;50.816;6.054;2023-03-23T05:38:05;2.80;;;1.57;;
41627;SDS011;27321;50.816;6.054;2023-03-23T05:41:06;2.85;;;1.55;;
41627;SDS011;27321;50.816;6.054;2023-03-23T05:44:14;2.97;;;1.83;;
41627;SDS011;27321;50.816;6.054;2023-03-23T05:47:20;4.07;;;1.60;;
41627;SDS011;27321;50.816;6.054;2023-03-23T05:50:28;3.20;;;1.60;;
41627;SDS011;27321;50.816;6.054;2023-03-23T05:53:29;2.63;;;1.58;;
41627;SDS011;27321;50.816;6.054;2023-03-23T05:56:31;1.87;;;1.20;;
41627;SDS011;27321;50.816;6.054;2023-03-23T05:59:47;2.33;;;1.40;;
41627;SDS011;27321;50.816;6.054;2023-03-23T06:02:55;2.93;;;1.80;;
41627;SDS011;27321;50.816;6.054;2023-03-23T06:06:05;3.53;;;1.30;;
41627;SDS011;27321;50.816;6.054;2023-03-23T06:09:18;2.47;;;1.50;;
41627;SDS011;27321;50.816;6.054;2023-03-23T06:12:40;2.17;;;1.40;;
41627;SDS011;27321;50.816;6.054;2023-03-23T06:15:59;3.77;;;1.40;;
41627;SDS011;27321;50.816;6.054;2023-03-23T06:19:14;3.87;;;1.40;;
41627;SDS011;27321;50.816;6.054;2023-03-23T06:22:23;2.77;;;1.33;;
41627;SDS011;27321;50.816;6.054;2023-03-23T06:25:47;3.63;;;1.70;;
41627;SDS011;27321;50.816;6.054;2023-03-23T06:31:52;2.55;;;1.42;;
41627;SDS011;27321;50.816;6.054;2023-03-23T06:34:59;3.07;;;1.50;;
41627;SDS011;27321;50.816;6.054;2023-03-23T06:38:31;3.27;;;1.30;;
41627;SDS011;27321;50.816;6.054;2023-03-23T06:41:33;3.95;;;1.27;;
41627;SDS011;27321;50.816;6.054;2023-03-23T06:44:34;4.95;;;1.30;;
41627;SDS011;27321;50.816;6.054;2023-03-23T06:47:35;2.50;;;1.23;;
41627;SDS011;27321;50.816;6.054;2023-03-23T06:50:36;1.88;;;1.05;;
41627;SDS011;27321;50.816;6.054;2023-03-23T06:53:37;2.05;;;1.48;;
41627;SDS011;27321;50.816;6.054;2023-03-23T06:56:40;2.03;;;1.37;;
41627;SDS011;27321;50.816;6.054;2023-03-23T06:59:43;2.87;;;1.20;;
41627;SDS011;27321;50.816;6.054;2023-03-23T07:05:49;2.00;;;0.93;;
41627;SDS011;27321;50.816;6.054;2023-03-23T07:08:53;2.87;;;1.07;;
41627;SDS011;27321;50.816;6.054;2023-03-23T07:11:58;1.63;;;1.00;;
41627;SDS011;27321;50.816;6.054;2023-03-23T07:15:11;2.03;;;1.10;;
41627;SDS011;27321;50.816;6.054;2023-03-23T07:18:15;3.33;;;1.00;;
41627;SDS011;27321;50.816;6.054;2023-03-23T07:21:21;1.93;;;1.23;;
41627;SDS011;27321;50.816;6.054;2023-03-23T07:24:23;3.75;;;1.30;;
41627;SDS011;27321;50.816;6.054;2023-03-23T07:27:39;3.37;;;1.40;;
41627;SDS011;27321;50.816;6.054;2023-03-23T07:30:40;2.53;;;1.10;;
41627;SDS011;27321;50.816;6.054;2023-03-23T07:33:44;1.97;;;1.10;;
41627;SDS011;27321;50.816;6.054;2023-03-23T07:36:45;1.55;;;1.00;;
41627;SDS011;27321;50.816;6.054;2023-03-23T07:39:47;1.83;;;0.80;;
41627;SDS011;27321;50.816;6.054;2023-03-23T07:42:54;2.00;;;1.03;;
41627;SDS011;27321;50.816;6.054;2023-03-23T07:46:17;3.43;;;1.10;;
41627;SDS011;27321;50.816;6.054;2023-03-23T07:49:25;2.47;;;1.10;;
41627;SDS011;27321;50.816;6.054;2023-03-23T07:52:36;4.07;;;1.38;;
41627;SDS011;27321;50.816;6.054;2023-03-23T07:55:38;1.77;;;1.07;;
41627;SDS011;27321;50.816;6.054;2023-03-23T07:58:47;4.60;;;1.40;;
41627;SDS011;27321;50.816;6.054;2023-03-23T08:01:50;2.37;;;1.23;;
41627;SDS011;27321;50.816;6.054;2023-03-23T08:05:08;4.43;;;1.53;;
41627;SDS011;27321;50.816;6.054;2023-03-23T08:08:25;2.23;;;1.13;;
41627;SDS011;27321;50.816;6.054;2023-03-23T08:11:45;2.60;;;1.37;;
41627;SDS011;27321;50.816;6.054;2023-03-23T08:15:22;2.33;;;1.13;;
41627;SDS011;27321;50.816;6.054;2023-03-23T08:18:59;2.97;;;1.10;;
41627;SDS011;27321;50.816;6.054;2023-03-23T08:22:12;1.67;;;1.00;;
41627;SDS011;27321;50.816;6.054;2023-03-23T08:25:32;2.53;;;1.10;;
41627;SDS011;27321;50.816;6.054;2023-03-23T08:28:56;1.40;;;0.97;;
41627;SDS011;27321;50.816;6.054;2023-03-23T08:32:25;3.07;;;1.20;;
41627;SDS011;27321;50.816;6.054;2023-03-23T08:35:43;4.40;;;1.20;;
41627;SDS011;27321;50.816;6.054;2023-03-23T08:39:04;1.63;;;1.00;;
41627;SDS011;27321;50.816;6.054;2023-03-23T08:42:23;2.67;;;1.40;;
41627;SDS011;27321;50.816;6.054;2023-03-23T08:45:42;2.33;;;1.00;;
41627;SDS011;27321;50.816;6.054;2023-03-23T08:48:59;1.57;;;0.93;;
41627;SDS011;27321;50.816;6.054;2023-03-23T08:52:20;2.67;;;0.98;;
41627;SDS011;27321;50.816;6.054;2023-03-23T08:55:48;2.07;;;1.10;;
41627;SDS011;27321;50.816;6.054;2023-03-23T08:59:12;4.03;;;1.30;;
41627;SDS011;27321;50.816;6.054;2023-03-23T09:02:22;4.00;;;1.10;;
41627;SDS011;27321;50.816;6.054;2023-03-23T09:05:29;2.17;;;1.13;;
41627;SDS011;27321;50.816;6.054;2023-03-23T09:08:49;3.17;;;1.10;;
41627;SDS011;27321;50.816;6.054;2023-03-23T09:11:52;2.70;;;1.17;;
41627;SDS011;27321;50.816;6.054;2023-03-23T09:14:56;2.10;;;0.90;;
41627;SDS011;27321;50.816;6.054;2023-03-23T09:17:57;2.45;;;0.98;;
41627;SDS011;27321;50.816;6.054;2023-03-23T09:20:59;3.97;;;1.30;;
41627;SDS011;27321;50.816;6.054;2023-03-23T09:24:00;3.35;;;1.40;;
41627;SDS011;27321;50.816;6.054;2023-03-23T09:27:02;2.90;;;1.00;;
41627;SDS011;27321;50.816;6.054;2023-03-23T09:30:04;1.40;;;0.90;;
41627;SDS011;27321;50.816;6.054;2023-03-23T09:33:13;2.45;;;0.98;;
41627;SDS011;27321;50.816;6.054;2023-03-23T09:36:14;4.07;;;0.93;;
41627;SDS011;27321;50.816;6.054;2023-03-23T09:50:15;2.38;;;0.90;;
41627;SDS011;27321;50.816;6.054;2023-03-23T09:53:22;1.23;;;0.60;;
41627;SDS011;27321;50.816;6.054;2023-03-23T09:56:41;1.00;;;0.50;;
41627;SDS011;27321;50.816;6.054;2023-03-23T09:59:46;2.13;;;0.60;;
41627;SDS011;27321;50.816;6.054;2023-03-23T10:03:19;1.50;;;0.80;;
41627;SDS011;27321;50.816;6.054;2023-03-23T10:06:27;1.02;;;0.68;;
41627;SDS011;27321;50.816;6.054;2023-03-23T10:09:28;0.50;;;0.50;;
41627;SDS011;27321;50.816;6.054;2023-03-23T10:12:35;1.83;;;0.40;;
41627;SDS011;27321;50.816;6.054;2023-03-23T10:15:44;2.30;;;0.70;;
41627;SDS011;27321;50.816;6.054;2023-03-23T10:18:49;0.60;;;0.50;;
41627;SDS011;27321;50.816;6.054;2023-03-23T10:22:04;1.95;;;0.82;;
41627;SDS011;27321;50.816;6.054;2023-03-23T10:28:18;0.90;;;0.68;;
41627;SDS011;27321;50.816;6.054;2023-03-23T10:31:35;1.10;;;0.70;;
41627;SDS011;27321;50.816;6.054;2023-03-23T10:34:46;5.32;;;0.77;;
41627;SDS011;27321;50.816;6.054;2023-03-23T10:37:56;1.33;;;0.80;;
41627;SDS011;27321;50.816;6.054;2023-03-23T10:41:25;1.03;;;0.73;;
41627;SDS011;27321;50.816;6.054;2023-03-23T10:44:25;3.03;;;0.82;;
41627;SDS011;27321;50.816;6.054;2023-03-23T10:47:27;1.75;;;0.77;;
41627;SDS011;27321;50.816;6.054;2023-03-23T10:50:32;1.23;;;0.70;;
41627;SDS011;27321;50.816;6.054;2023-03-23T10:53:49;4.05;;;0.80;;
41627;SDS011;27321;50.816;6.054;2023-03-23T10:56:55;2.00;;;0.95;;
41627;SDS011;27321;50.816;6.054;2023-03-23T11:00:14;1.38;;;0.80;;
41627;SDS011;27321;50.816;6.054;2023-03-23T11:03:32;1.30;;;0.70;;
41627;SDS011;27321;50.816;6.054;2023-03-23T11:06:51;2.33;;;0.93;;
41627;SDS011;27321;50.816;6.054;2023-03-23T11:10:04;2.25;;;0.60;;
41627;SDS011;27321;50.816;6.054;2023-03-23T11:13:17;0.52;;;0.52;;
41627;SDS011;27321;50.816;6.054;2023-03-23T11:16:42;0.95;;;0.52;;
41627;SDS011;27321;50.816;6.054;2023-03-23T11:19:55;1.90;;;0.80;;
41627;SDS011;27321;50.816;6.054;2023-03-23T11:22:56;0.90;;;0.55;;
41627;SDS011;27321;50.816;6.054;2023-03-23T11:25:59;1.50;;;0.90;;
41627;SDS011;27321;50.816;6.054;2023-03-23T11:29:25;1.67;;;0.85;;
41627;SDS011;27321;50.816;6.054;2023-03-23T11:32:28;0.47;;;0.40;;
41627;SDS011;27321;50.816;6.054;2023-03-23T11:35:33;1.17;;;0.80;;
41627;SDS011;27321;50.816;6.054;2023-03-23T11:38:34;2.38;;;0.68;;
41627;SDS011;27321;50.816;6.054;2023-03-23T11:41:37;0.80;;;0.60;;
41627;SDS011;27321;50.816;6.054;2023-03-23T11:44:42;1.95;;;1.00;;
41627;SDS011;27321;50.816;6.054;2023-03-23T11:51:15;1.58;;;0.70;;
41627;SDS011;27321;50.816;6.054;2023-03-23T11:54:35;1.60;;;0.93;;
41627;SDS011;27321;50.816;6.054;2023-03-23T11:57:47;1.90;;;0.95;;
41627;SDS011;27321;50.816;6.054;2023-03-23T12:00:55;2.30;;;0.90;;
41627;SDS011;27321;50.816;6.054;2023-03-23T12:24:39;1.42;;;0.77;;
41627;SDS011;27321;50.816;6.054;2023-03-23T12:27:56;3.85;;;1.15;;
41627;SDS011;27321;50.816;6.054;2023-03-23T12:35:14;6.25;;;1.30;;
41627;SDS011;27321;50.816;6.054;2023-03-23T12:52:43;1.83;;;1.00;;
41627;SDS011;27321;50.816;6.054;2023-03-23T13:06:45;1.90;;;1.00;;
41627;SDS011;27321;50.816;6.054;2023-03-23T13:10:00;2.63;;;1.20;;
41627;SDS011;27321;50.816;6.054;2023-03-23T13:13:26;2.95;;;1.30;;
41627;SDS011;27321;50.816;6.054;2023-03-23T13:16:50;2.03;;;1.20;;
41627;SDS011;27321;50.816;6.054;2023-03-23T13:23:35;2.47;;;1.23;;
41627;SDS011;27321;50.816;6.054;2023-03-23T13:26:42;4.28;;;1.58;;
41627;SDS011;27321;50.816;6.054;2023-03-23T13:29:45;3.35;;;1.52;;
41627;SDS011;27321;50.816;6.054;2023-03-23T13:32:47;3.53;;;1.50;;
41627;SDS011;27321;50.816;6.054;2023-03-23T13:35:48;3.05;;;1.60;;
41627;SDS011;27321;50.816;6.054;2023-03-23T13:38:51;6.57;;;1.48;;
41627;SDS011;27321;50.816;6.054;2023-03-23T13:45:23;5.20;;;1.55;;
41627;SDS011;27321;50.816;6.054;2023-03-23T13:52:53;5.18;;;1.77;;
41627;SDS011;27321;50.816;6.054;2023-03-23T13:55:50;3.90;;;1.80;;
41627;SDS011;27321;50.816;6.054;2023-03-23T14:02:40;2.95;;;1.27;;
41627;SDS011;27321;50.816;6.054;2023-03-23T14:12:38;4.07;;;1.50;;
41627;SDS011;27321;50.816;6.054;2023-03-23T14:15:43;3.65;;;1.45;;
41627;SDS011;27321;50.816;6.054;2023-03-23T14:18:57;4.03;;;1.60;;
41627;SDS011;27321;50.816;6.054;2023-03-23T14:22:01;4.43;;;1.40;;
41627;SDS011;27321;50.816;6.054;2023-03-23T14:25:10;5.20;;;1.50;;
41627;SDS011;27321;50.816;6.054;2023-03-23T14:28:17;2.58;;;1.33;;
41627;SDS011;27321;50.816;6.054;2023-03-23T14:31:22;3.75;;;1.20;;
41627;SDS011;27321;50.816;6.054;2023-03-23T14:34:27;4.35;;;1.65;;
41627;SDS011;27321;50.816;6.054;2023-03-23T14:37:34;3.47;;;1.70;;
41627;SDS011;27321;50.816;6.054;2023-03-23T14:40:37;3.38;;;1.08;;
41627;SDS011;27321;50.816;6.054;2023-03-23T14:43:38;3.42;;;1.73;;
41627;SDS011;27321;50.816;6.054;2023-03-23T14:46:39;2.90;;;1.10;;
41627;SDS011;27321;50.816;6.054;2023-03-23T14:49:43;3.75;;;1.70;;
41627;SDS011;27321;50.816;6.054;2023-03-23T14:52:47;4.63;;;1.50;;
41627;SDS011;27321;50.816;6.054;2023-03-23T14:55:49;3.30;;;1.77;;
41627;SDS011;27321;50.816;6.054;2023-03-23T14:58:52;2.50;;;1.40;;
41627;SDS011;27321;50.816;6.054;2023-03-23T15:01:54;3.95;;;1.70;;
41627;SDS011;27321;50.816;6.054;2023-03-23T15:04:56;5.03;;;1.58;;
41627;SDS011;27321;50.816;6.054;2023-03-23T15:08:05;4.63;;;1.88;;
41627;SDS011;27321;50.816;6.054;2023-03-23T15:14:18;2.75;;;1.50;;
41627;SDS011;27321;50.816;6.054;2023-03-23T15:17:25;3.50;;;1.75;;
41627;SDS011;27321;50.816;6.054;2023-03-23T15:20:30;2.67;;;1.48;;
41627;SDS011;27321;50.816;6.054;2023-03-23T15:23:52;3.75;;;1.48;;
41627;SDS011;27321;50.816;6.054;2023-03-23T15:27:02;4.07;;;1.88;;
41627;SDS011;27321;50.816;6.054;2023-03-23T15:30:14;3.30;;;1.27;;
41627;SDS011;27321;50.816;6.054;2023-03-23T15:33:38;2.55;;;1.40;;
41627;SDS011;27321;50.816;6.054;2023-03-23T15:36:41;4.80;;;1.48;;
41627;SDS011;27321;50.816;6.054;2023-03-23T15:39:44;3.80;;;1.52;;
41627;SDS011;27321;50.816;6.054;2023-03-23T15:42:49;2.92;;;1.40;;
41627;SDS011;27321;50.816;6.054;2023-03-23T15:49:11;3.75;;;1.52;;
41627;SDS011;27321;50.816;6.054;2023-03-23T15:52:14;1.70;;;1.42;;
41627;SDS011;27321;50.816;6.054;2023-03-23T15:58:26;3.70;;;1.40;;
41627;SDS011;27321;50.816;6.054;2023-03-23T16:01:28;3.53;;;1.70;;
41627;SDS011;27321;50.816;6.054;2023-03-23T16:04:30;4.35;;;1.52;;
41627;SDS011;27321;50.816;6.054;2023-03-23T16:07:32;3.17;;;1.35;;
41627;SDS011;27321;50.816;6.054;2023-03-23T16:10:33;3.80;;;1.50;;
41627;SDS011;27321;50.816;6.054;2023-03-23T16:13:34;4.32;;;1.60;;
41627;SDS011;27321;50.816;6.054;2023-03-23T16:16:37;2.72;;;1.20;;
41627;SDS011;27321;50.816;6.054;2023-03-23T16:19:44;2.70;;;1.48;;
41627;SDS011;27321;50.816;6.054;2023-03-23T16:22:45;4.47;;;1.60;;
41627;SDS011;27321;50.816;6.054;2023-03-23T16:25:48;4.95;;;1.80;;
41627;SDS011;27321;50.816;6.054;2023-03-23T16:28:49;2.50;;;1.63;;
41627;SDS011;27321;50.816;6.054;2023-03-23T16:31:50;3.38;;;1.50;;
41627;SDS011;27321;50.816;6.054;2023-03-23T16:34:51;3.42;;;1.40;;
41627;SDS011;27321;50.816;6.054;2023-03-23T16:37:54;3.10;;;1.80;;
41627;SDS011;27321;50.816;6.054;2023-03-23T16:40:56;3.60;;;1.77;;
41627;SDS011;27321;50.816;6.054;2023-03-23T16:43:57;3.65;;;1.60;;
41627;SDS011;27321;50.816;6.054;2023-03-23T16:46:58;3.63;;;1.60;;
41627;SDS011;27321;50.816;6.054;2023-03-23T16:49:59;2.60;;;1.52;;
41627;SDS011;27321;50.816;6.054;2023-03-23T16:53:00;2.75;;;1.15;;
41627;SDS011;27321;50.816;6.054;2023-03-23T16:56:02;4.10;;;1.30;;
41627;SDS011;27321;50.816;6.054;2023-03-23T16:59:03;2.83;;;1.17;;
41627;SDS011;27321;50.816;6.054;2023-03-23T17:02:05;3.90;;;1.60;;
41627;SDS011;27321;50.816;6.054;2023-03-23T17:05:07;5.00;;;1.70;;
41627;SDS011;27321;50.816;6.054;2023-03-23T17:08:12;4.63;;;1.70;;
41627;SDS011;27321;50.816;6.054;2023-03-23T17:11:13;3.42;;;1.50;;
41627;SDS011;27321;50.816;6.054;2023-03-23T17:14:14;5.97;;;1.80;;
41627;SDS011;27321;50.816;6.054;2023-03-23T17:17:15;3.55;;;1.73;;
41627;SDS011;27321;50.816;6.054;2023-03-23T17:20:17;2.50;;;1.20;;
41627;SDS011;27321;50.816;6.054;2023-03-23T17:23:18;3.83;;;1.45;;
41627;SDS011;27321;50.816;6.054;2023-03-23T17:26:19;4.20;;;1.90;;
41627;SDS011;27321;50.816;6.054;2023-03-23T17:29:20;4.25;;;1.67;;
41627;SDS011;27321;50.816;6.054;2023-03-23T17:32:22;4.07;;;1.52;;
41627;SDS011;27321;50.816;6.054;2023-03-23T17:35:24;3.70;;;1.48;;
41627;SDS011;27321;50.816;6.054;2023-03-23T17:38:25;4.97;;;1.35;;
41627;SDS011;27321;50.816;6.054;2023-03-23T17:41:26;2.88;;;1.30;;
41627;SDS011;27321;50.816;6.054;2023-03-23T17:44:27;5.90;;;1.75;;
41627;SDS011;27321;50.816;6.054;2023-03-23T17:47:28;2.03;;;1.02;;
41627;SDS011;27321;50.816;6.054;2023-03-23T17:50:33;3.17;;;1.40;;
41627;SDS011;27321;50.816;6.054;2023-03-23T17:53:34;2.47;;;1.40;;
41627;SDS011;27321;50.816;6.054;2023-03-23T17:56:36;3.63;;;1.50;;
41627;SDS011;27321;50.816;6.054;2023-03-23T17:59:37;3.15;;;1.42;;
41627;SDS011;27321;50.816;6.054;2023-03-23T18:02:41;4.47;;;1.80;;
41627;SDS011;27321;50.816;6.054;2023-03-23T18:05:42;2.75;;;1.45;;
41627;SDS011;27321;50.816;6.054;2023-03-23T18:08:43;4.55;;;1.75;;
41627;SDS011;27321;50.816;6.054;2023-03-23T18:11:44;6.60;;;1.38;;
41627;SDS011;27321;50.816;6.054;2023-03-23T18:14:46;4.93;;;1.40;;
41627;SDS011;27321;50.816;6.054;2023-03-23T18:17:47;5.43;;;1.45;;
41627;SDS011;27321;50.816;6.054;2023-03-23T18:20:54;2.30;;;1.17;;
41627;SDS011;27321;50.816;6.054;2023-03-23T18:24:00;3.78;;;1.45;;
41627;SDS011;27321;50.816;6.054;2023-03-23T18:27:02;2.60;;;1.30;;
41627;SDS011;27321;50.816;6.054;2023-03-23T18:30:03;3.10;;;1.63;;
41627;SDS011;27321;50.816;6.054;2023-03-23T18:33:06;3.17;;;1.50;;
41627;SDS011;27321;50.816;6.054;2023-03-23T18:36:07;4.30;;;1.60;;
41627;SDS011;27321;50.816;6.054;2023-03-23T18:39:09;4.55;;;1.48;;
41627;SDS011;27321;50.816;6.054;2023-03-23T18:42:11;3.25;;;1.63;;
41627;SDS011;27321;50.816;6.054;2023-03-23T18:45:12;4.22;;;1.55;;
41627;SDS011;27321;50.816;6.054;2023-03-23T18:48:13;6.95;;;1.75;;
41627;SDS011;27321;50.816;6.054;2023-03-23T18:51:14;4.55;;;1.40;;
41627;SDS011;27321;50.816;6.054;2023-03-23T18:54:15;4.22;;;1.45;;
41627;SDS011;27321;50.816;6.054;2023-03-23T18:57:16;3.38;;;1.65;;
41627;SDS011;27321;50.816;6.054;2023-03-23T19:00:20;3.60;;;1.48;;
41627;SDS011;27321;50.816;6.054;2023-03-23T19:03:21;4.05;;;1.75;;
41627;SDS011;27321;50.816;6.054;2023-03-23T19:06:23;4.38;;;1.73;;
41627;SDS011;27321;50.816;6.054;2023-03-23T19:09:27;3.40;;;1.43;;
41627;SDS011;27321;50.816;6.054;2023-03-23T19:12:29;3.13;;;1.40;;
41627;SDS011;27321;50.816;6.054;2023-03-23T19:15:31;2.30;;;1.47;;
41627;SDS011;27321;50.816;6.054;2023-03-23T19:18:32;3.00;;;1.55;;
41627;SDS011;27321;50.816;6.054;2023-03-23T19:21:33;6.55;;;1.77;;
41627;SDS011;27321;50.816;6.054;2023-03-23T19:24:35;6.03;;;1.40;;
41627;SDS011;27321;50.816;6.054;2023-03-23T19:27:37;3.53;;;1.38;;
41627;SDS011;27321;50.816;6.054;2023-03-23T19:30:42;2.70;;;1.63;;
41627;SDS011;27321;50.816;6.054;2023-03-23T19:33:48;3.47;;;1.50;;
41627;SDS011;27321;50.816;6.054;2023-03-23T19:36:52;3.97;;;1.87;;
41627;SDS011;27321;50.816;6.054;2023-03-23T19:39:54;2.87;;;1.30;;
41627;SDS011;27321;50.816;6.054;2023-03-23T19:42:55;2.90;;;1.40;;
41627;SDS011;27321;50.816;6.054;2023-03-23T19:45:56;3.38;;;1.35;;
41627;SDS011;27321;50.816;6.054;2023-03-23T19:48:57;2.95;;;1.55;;
41627;SDS011;27321;50.816;6.054;2023-03-23T19:51:59;2.50;;;1.30;;
41627;SDS011;27321;50.816;6.054;2023-03-23T19:55:01;3.97;;;1.55;;
41627;SDS011;27321;50.816;6.054;2023-03-23T19:58:02;2.38;;;1.30;;
41627;SDS011;27321;50.816;6.054;2023-03-23T20:01:04;4.50;;;1.40;;
41627;SDS011;27321;50.816;6.054;2023-03-23T20:04:05;1.55;;;1.15;;
41627;SDS011;27321;50.816;6.054;2023-03-23T20:10:07;3.33;;;1.33;;
41627;SDS011;27321;50.816;6.054;2023-03-23T20:13:09;1.75;;;1.02;;
41627;SDS011;27321;50.816;6.054;2023-03-23T20:16:11;2.47;;;1.20;;
41627;SDS011;27321;50.816;6.054;2023-03-23T20:19:12;4.05;;;1.40;;
41627;SDS011;27321;50.816;6.054;2023-03-23T20:22:13;2.03;;;1.02;;
41627;SDS011;27321;50.816;6.054;2023-03-23T20:25:14;1.73;;;1.10;;
41627;SDS011;27321;50.816;6.054;2023-03-23T20:28:16;3.57;;;1.30;;
41627;SDS011;27321;50.816;6.054;2023-03-23T20:31:22;6.50;;;1.40;;
41627;SDS011;27321;50.816;6.054;2023-03-23T20:34:29;2.23;;;1.20;;
41627;SDS011;27321;50.816;6.054;2023-03-23T20:37:37;2.30;;;1.33;;
41627;SDS011;27321;50.816;6.054;2023-03-23T20:40:39;3.33;;;1.13;;
41627;SDS011;27321;50.816;6.054;2023-03-23T20:43:41;2.80;;;1.23;;
41627;SDS011;27321;50.816;6.054;2023-03-23T20:46:44;2.97;;;1.20;;
41627;SDS011;27321;50.816;6.054;2023-03-23T20:49:54;2.67;;;1.20;;
41627;SDS011;27321;50.816;6.054;2023-03-23T20:53:00;2.47;;;1.03;;
41627;SDS011;27321;50.816;6.054;2023-03-23T20:56:03;2.87;;;1.30;;
41627;SDS011;27321;50.816;6.054;2023-03-23T20:59:05;3.50;;;1.47;;
41627;SDS011;27321;50.816;6.054;2023-03-23T21:02:11;3.10;;;1.43;;